sensor_id;sensor_type;location;lat;lon;timestamp;P1;durP1;ratioP1;P2;durP2;ratioP2
45548;SDS011;31270;48.328;10.096;2023-11-22T00:01:10;27.40;;;13.73;;
45548;SDS011;31270;48.328;10.096;2023-11-22T00:03:36;24.60;;;13.80;;
45548;SDS011;31270;48.328;10.096;2023-11-22T00:06:02;23.20;;;12.90;;
45548;SDS011;31270;48.328;10.096;2023-11-22T00:08:28;25.40;;;12.77;;
45548;SDS011;31270;48.328;10.096;2023-11-22T00:10:56;26.50;;;13.87;;
45548;SDS011;31270;48.328;10.096;2023-11-22T00:13:22;27.17;;;13.60;;
45548;SDS011;31270;48.328;10.096;2023-11-22T00:15:48;22.20;;;13.03;;
45548;SDS011;31270;48.328;10.096;2023-11-22T00:18:15;28.47;;;14.17;;
45548;SDS011;31270;48.328;10.096;2023-11-22T00:20:41;31.13;;;15.10;;
45548;SDS011;31270;48.328;10.096;2023-11-22T00:23:06;23.47;;;13.73;;
45548;SDS011;31270;48.328;10.096;2023-11-22T00:25:33;23.83;;;13.87;;
45548;SDS011;31270;48.328;10.096;2023-11-22T00:27:58;28.97;;;13.87;;
45548;SDS011;31270;48.328;10.096;2023-11-22T00:30:24;23.20;;;13.07;;
45548;SDS011;31270;48.328;10.096;2023-11-22T00:32:50;25.93;;;13.43;;
45548;SDS011;31270;48.328;10.096;2023-11-22T00:35:16;26.57;;;13.70;;
45548;SDS011;31270;48.328;10.096;2023-11-22T00:37:42;23.37;;;13.17;;
45548;SDS011;31270;48.328;10.096;2023-11-22T00:40:07;27.40;;;13.20;;
45548;SDS011;31270;48.328;10.096;2023-11-22T00:42:39;28.20;;;13.80;;
45548;SDS011;31270;48.328;10.096;2023-11-22T00:45:08;24.43;;;13.03;;
45548;SDS011;31270;48.328;10.096;2023-11-22T00:47:34;28.53;;;14.43;;
45548;SDS011;31270;48.328;10.096;2023-11-22T00:50:01;26.33;;;14.27;;
45548;SDS011;31270;48.328;10.096;2023-11-22T00:52:30;27.43;;;14.20;;
45548;SDS011;31270;48.328;10.096;2023-11-22T00:54:56;24.87;;;12.87;;
45548;SDS011;31270;48.328;10.096;2023-11-22T00:57:21;28.93;;;13.27;;
45548;SDS011;31270;48.328;10.096;2023-11-22T00:59:48;27.73;;;12.47;;
45548;SDS011;31270;48.328;10.096;2023-11-22T01:02:14;24.87;;;12.50;;
45548;SDS011;31270;48.328;10.096;2023-11-22T01:04:40;20.97;;;12.83;;
45548;SDS011;31270;48.328;10.096;2023-11-22T01:07:06;22.97;;;12.40;;
45548;SDS011;31270;48.328;10.096;2023-11-22T01:09:32;22.37;;;12.90;;
45548;SDS011;31270;48.328;10.096;2023-11-22T01:11:58;23.57;;;13.43;;
45548;SDS011;31270;48.328;10.096;2023-11-22T01:14:24;22.23;;;12.70;;
45548;SDS011;31270;48.328;10.096;2023-11-22T01:16:51;23.33;;;12.63;;
45548;SDS011;31270;48.328;10.096;2023-11-22T01:19:17;21.97;;;12.30;;
45548;SDS011;31270;48.328;10.096;2023-11-22T01:21:43;23.23;;;12.73;;
45548;SDS011;31270;48.328;10.096;2023-11-22T01:24:09;20.40;;;12.23;;
45548;SDS011;31270;48.328;10.096;2023-11-22T01:26:34;22.37;;;12.17;;
45548;SDS011;31270;48.328;10.096;2023-11-22T01:29:00;23.50;;;12.90;;
45548;SDS011;31270;48.328;10.096;2023-11-22T01:31:27;23.63;;;13.47;;
45548;SDS011;31270;48.328;10.096;2023-11-22T01:33:53;35.40;;;13.90;;
45548;SDS011;31270;48.328;10.096;2023-11-22T01:36:20;25.30;;;12.83;;
45548;SDS011;31270;48.328;10.096;2023-11-22T01:38:45;22.07;;;13.30;;
45548;SDS011;31270;48.328;10.096;2023-11-22T01:41:11;27.00;;;13.10;;
45548;SDS011;31270;48.328;10.096;2023-11-22T01:43:38;25.70;;;12.77;;
45548;SDS011;31270;48.328;10.096;2023-11-22T01:46:05;28.23;;;12.40;;
45548;SDS011;31270;48.328;10.096;2023-11-22T01:48:38;22.00;;;12.83;;
45548;SDS011;31270;48.328;10.096;2023-11-22T01:51:03;21.93;;;12.70;;
45548;SDS011;31270;48.328;10.096;2023-11-22T01:53:30;14.83;;;8.40;;
45548;SDS011;31270;48.328;10.096;2023-11-22T01:55:57;11.60;;;7.37;;
45548;SDS011;31270;48.328;10.096;2023-11-22T01:58:23;9.93;;;6.00;;
45548;SDS011;31270;48.328;10.096;2023-11-22T02:00:49;6.60;;;5.03;;
45548;SDS011;31270;48.328;10.096;2023-11-22T02:03:15;6.47;;;4.37;;
45548;SDS011;31270;48.328;10.096;2023-11-22T02:05:41;6.30;;;4.27;;
45548;SDS011;31270;48.328;10.096;2023-11-22T02:08:08;7.30;;;4.73;;
45548;SDS011;31270;48.328;10.096;2023-11-22T02:10:35;5.80;;;4.37;;
45548;SDS011;31270;48.328;10.096;2023-11-22T02:13:02;5.93;;;4.27;;
45548;SDS011;31270;48.328;10.096;2023-11-22T02:15:30;6.23;;;4.73;;
45548;SDS011;31270;48.328;10.096;2023-11-22T02:17:56;6.93;;;4.70;;
45548;SDS011;31270;48.328;10.096;2023-11-22T02:20:22;8.83;;;4.00;;
45548;SDS011;31270;48.328;10.096;2023-11-22T02:22:48;8.23;;;4.80;;
45548;SDS011;31270;48.328;10.096;2023-11-22T02:25:13;6.67;;;5.10;;
45548;SDS011;31270;48.328;10.096;2023-11-22T02:27:42;8.43;;;4.83;;
45548;SDS011;31270;48.328;10.096;2023-11-22T02:30:08;8.10;;;5.30;;
45548;SDS011;31270;48.328;10.096;2023-11-22T02:32:34;8.83;;;5.50;;
45548;SDS011;31270;48.328;10.096;2023-11-22T02:35:00;9.10;;;6.13;;
45548;SDS011;31270;48.328;10.096;2023-11-22T02:37:26;12.60;;;5.93;;
45548;SDS011;31270;48.328;10.096;2023-11-22T02:40:00;9.60;;;5.93;;
45548;SDS011;31270;48.328;10.096;2023-11-22T02:42:29;9.23;;;5.73;;
45548;SDS011;31270;48.328;10.096;2023-11-22T02:44:55;8.07;;;5.50;;
45548;SDS011;31270;48.328;10.096;2023-11-22T02:47:22;9.33;;;5.63;;
45548;SDS011;31270;48.328;10.096;2023-11-22T02:49:48;10.87;;;6.10;;
45548;SDS011;31270;48.328;10.096;2023-11-22T02:52:14;7.50;;;5.07;;
45548;SDS011;31270;48.328;10.096;2023-11-22T02:54:43;8.27;;;5.20;;
45548;SDS011;31270;48.328;10.096;2023-11-22T02:57:11;8.60;;;5.37;;
45548;SDS011;31270;48.328;10.096;2023-11-22T02:59:36;10.03;;;5.73;;
45548;SDS011;31270;48.328;10.096;2023-11-22T03:02:06;10.40;;;5.60;;
45548;SDS011;31270;48.328;10.096;2023-11-22T03:04:32;7.33;;;5.00;;
45548;SDS011;31270;48.328;10.096;2023-11-22T03:06:59;8.37;;;5.10;;
45548;SDS011;31270;48.328;10.096;2023-11-22T03:09:24;7.20;;;4.87;;
45548;SDS011;31270;48.328;10.096;2023-11-22T03:11:51;5.67;;;4.03;;
45548;SDS011;31270;48.328;10.096;2023-11-22T03:14:17;6.10;;;4.37;;
45548;SDS011;31270;48.328;10.096;2023-11-22T03:16:43;5.87;;;3.97;;
45548;SDS011;31270;48.328;10.096;2023-11-22T03:19:08;6.50;;;4.07;;
45548;SDS011;31270;48.328;10.096;2023-11-22T03:21:35;7.67;;;4.60;;
45548;SDS011;31270;48.328;10.096;2023-11-22T03:24:01;6.87;;;4.67;;
45548;SDS011;31270;48.328;10.096;2023-11-22T03:26:29;6.63;;;4.70;;
45548;SDS011;31270;48.328;10.096;2023-11-22T03:28:55;6.13;;;4.33;;
45548;SDS011;31270;48.328;10.096;2023-11-22T03:31:20;9.07;;;4.57;;
45548;SDS011;31270;48.328;10.096;2023-11-22T03:33:46;7.20;;;4.67;;
45548;SDS011;31270;48.328;10.096;2023-11-22T03:36:15;8.67;;;5.30;;
45548;SDS011;31270;48.328;10.096;2023-11-22T03:38:50;7.40;;;4.47;;
45548;SDS011;31270;48.328;10.096;2023-11-22T03:41:16;8.17;;;4.83;;
45548;SDS011;31270;48.328;10.096;2023-11-22T03:43:42;6.10;;;4.53;;
45548;SDS011;31270;48.328;10.096;2023-11-22T03:46:08;7.47;;;5.47;;
45548;SDS011;31270;48.328;10.096;2023-11-22T03:48:36;9.23;;;6.03;;
45548;SDS011;31270;48.328;10.096;2023-11-22T03:51:02;7.70;;;4.23;;
45548;SDS011;31270;48.328;10.096;2023-11-22T03:53:30;8.40;;;5.70;;
45548;SDS011;31270;48.328;10.096;2023-11-22T03:57:02;10.63;;;5.50;;
45548;SDS011;31270;48.328;10.096;2023-11-22T03:59:27;9.30;;;5.40;;
45548;SDS011;31270;48.328;10.096;2023-11-22T04:01:53;7.23;;;5.30;;
45548;SDS011;31270;48.328;10.096;2023-11-22T04:04:19;8.93;;;5.67;;
45548;SDS011;31270;48.328;10.096;2023-11-22T04:06:45;9.70;;;6.37;;
45548;SDS011;31270;48.328;10.096;2023-11-22T04:09:10;8.80;;;5.73;;
45548;SDS011;31270;48.328;10.096;2023-11-22T04:11:39;9.70;;;5.93;;
45548;SDS011;31270;48.328;10.096;2023-11-22T04:14:05;10.60;;;6.50;;
45548;SDS011;31270;48.328;10.096;2023-11-22T04:16:31;9.97;;;6.20;;
45548;SDS011;31270;48.328;10.096;2023-11-22T04:18:57;11.30;;;6.27;;
45548;SDS011;31270;48.328;10.096;2023-11-22T04:21:22;9.77;;;5.87;;
45548;SDS011;31270;48.328;10.096;2023-11-22T04:23:49;11.87;;;6.43;;
45548;SDS011;31270;48.328;10.096;2023-11-22T04:26:15;11.53;;;6.83;;
45548;SDS011;31270;48.328;10.096;2023-11-22T04:28:41;10.87;;;6.50;;
45548;SDS011;31270;48.328;10.096;2023-11-22T04:31:07;9.80;;;6.30;;
45548;SDS011;31270;48.328;10.096;2023-11-22T04:33:34;11.20;;;6.63;;
45548;SDS011;31270;48.328;10.096;2023-11-22T04:35:59;9.40;;;6.43;;
45548;SDS011;31270;48.328;10.096;2023-11-22T04:38:26;12.27;;;7.27;;
45548;SDS011;31270;48.328;10.096;2023-11-22T04:40:51;13.87;;;7.00;;
45548;SDS011;31270;48.328;10.096;2023-11-22T04:43:17;12.37;;;7.57;;
45548;SDS011;31270;48.328;10.096;2023-11-22T04:45:43;12.20;;;7.13;;
45548;SDS011;31270;48.328;10.096;2023-11-22T04:48:08;13.17;;;7.53;;
45548;SDS011;31270;48.328;10.096;2023-11-22T04:50:40;13.77;;;8.20;;
45548;SDS011;31270;48.328;10.096;2023-11-22T04:53:05;13.73;;;8.10;;
45548;SDS011;31270;48.328;10.096;2023-11-22T04:55:31;14.67;;;8.47;;
45548;SDS011;31270;48.328;10.096;2023-11-22T04:57:57;17.70;;;8.90;;
45548;SDS011;31270;48.328;10.096;2023-11-22T05:00:22;16.43;;;9.10;;
45548;SDS011;31270;48.328;10.096;2023-11-22T05:02:48;16.60;;;9.70;;
45548;SDS011;31270;48.328;10.096;2023-11-22T05:05:14;17.87;;;10.73;;
45548;SDS011;31270;48.328;10.096;2023-11-22T05:07:39;17.80;;;10.20;;
45548;SDS011;31270;48.328;10.096;2023-11-22T05:10:05;20.13;;;12.03;;
45548;SDS011;31270;48.328;10.096;2023-11-22T05:12:34;19.83;;;11.63;;
45548;SDS011;31270;48.328;10.096;2023-11-22T05:15:00;23.03;;;11.73;;
45548;SDS011;31270;48.328;10.096;2023-11-22T05:17:29;19.63;;;10.97;;
45548;SDS011;31270;48.328;10.096;2023-11-22T05:19:55;18.83;;;11.97;;
45548;SDS011;31270;48.328;10.096;2023-11-22T05:22:21;21.03;;;11.73;;
45548;SDS011;31270;48.328;10.096;2023-11-22T05:24:47;23.10;;;11.70;;
45548;SDS011;31270;48.328;10.096;2023-11-22T05:27:13;22.67;;;11.63;;
45548;SDS011;31270;48.328;10.096;2023-11-22T05:29:39;18.70;;;10.07;;
45548;SDS011;31270;48.328;10.096;2023-11-22T05:32:05;24.47;;;12.93;;
45548;SDS011;31270;48.328;10.096;2023-11-22T05:34:32;24.97;;;12.27;;
45548;SDS011;31270;48.328;10.096;2023-11-22T05:36:58;22.23;;;12.83;;
45548;SDS011;31270;48.328;10.096;2023-11-22T05:39:24;20.20;;;11.87;;
45548;SDS011;31270;48.328;10.096;2023-11-22T05:41:50;24.47;;;13.60;;
45548;SDS011;31270;48.328;10.096;2023-11-22T05:44:16;22.67;;;12.13;;
45548;SDS011;31270;48.328;10.096;2023-11-22T05:46:42;24.13;;;11.10;;
45548;SDS011;31270;48.328;10.096;2023-11-22T05:49:07;23.07;;;11.87;;
45548;SDS011;31270;48.328;10.096;2023-11-22T05:51:35;24.07;;;12.20;;
45548;SDS011;31270;48.328;10.096;2023-11-22T05:54:02;22.50;;;12.10;;
45548;SDS011;31270;48.328;10.096;2023-11-22T05:56:28;27.03;;;12.43;;
45548;SDS011;31270;48.328;10.096;2023-11-22T05:58:54;23.17;;;12.77;;
45548;SDS011;31270;48.328;10.096;2023-11-22T06:01:19;27.07;;;13.40;;
45548;SDS011;31270;48.328;10.096;2023-11-22T06:03:45;20.43;;;11.43;;
45548;SDS011;31270;48.328;10.096;2023-11-22T06:06:10;22.73;;;11.67;;
45548;SDS011;31270;48.328;10.096;2023-11-22T06:08:37;24.97;;;13.00;;
45548;SDS011;31270;48.328;10.096;2023-11-22T06:11:03;22.67;;;12.20;;
45548;SDS011;31270;48.328;10.096;2023-11-22T06:13:28;20.37;;;11.67;;
45548;SDS011;31270;48.328;10.096;2023-11-22T06:15:54;21.43;;;12.10;;
45548;SDS011;31270;48.328;10.096;2023-11-22T06:18:27;19.73;;;11.93;;
45548;SDS011;31270;48.328;10.096;2023-11-22T06:20:55;21.53;;;11.63;;
45548;SDS011;31270;48.328;10.096;2023-11-22T06:23:21;22.33;;;11.73;;
45548;SDS011;31270;48.328;10.096;2023-11-22T06:25:47;19.00;;;11.10;;
45548;SDS011;31270;48.328;10.096;2023-11-22T06:28:12;18.13;;;10.60;;
45548;SDS011;31270;48.328;10.096;2023-11-22T06:30:38;20.43;;;11.43;;
45548;SDS011;31270;48.328;10.096;2023-11-22T06:33:04;19.63;;;10.87;;
45548;SDS011;31270;48.328;10.096;2023-11-22T06:35:29;17.53;;;9.90;;
45548;SDS011;31270;48.328;10.096;2023-11-22T06:37:55;20.70;;;12.40;;
45548;SDS011;31270;48.328;10.096;2023-11-22T06:40:22;16.80;;;9.60;;
45548;SDS011;31270;48.328;10.096;2023-11-22T06:42:47;21.23;;;10.73;;
45548;SDS011;31270;48.328;10.096;2023-11-22T06:45:13;20.67;;;11.93;;
45548;SDS011;31270;48.328;10.096;2023-11-22T06:47:39;18.83;;;10.87;;
45548;SDS011;31270;48.328;10.096;2023-11-22T06:50:06;21.00;;;10.70;;
45548;SDS011;31270;48.328;10.096;2023-11-22T06:52:37;21.87;;;10.97;;
45548;SDS011;31270;48.328;10.096;2023-11-22T06:55:04;17.80;;;10.07;;
45548;SDS011;31270;48.328;10.096;2023-11-22T06:57:30;15.60;;;9.77;;
45548;SDS011;31270;48.328;10.096;2023-11-22T06:59:56;18.07;;;9.60;;
45548;SDS011;31270;48.328;10.096;2023-11-22T07:02:22;16.20;;;9.60;;
45548;SDS011;31270;48.328;10.096;2023-11-22T07:04:48;16.37;;;9.40;;
45548;SDS011;31270;48.328;10.096;2023-11-22T07:07:15;13.93;;;7.90;;
45548;SDS011;31270;48.328;10.096;2023-11-22T07:09:44;15.43;;;9.17;;
45548;SDS011;31270;48.328;10.096;2023-11-22T07:12:11;13.30;;;8.40;;
45548;SDS011;31270;48.328;10.096;2023-11-22T07:14:37;12.87;;;7.70;;
45548;SDS011;31270;48.328;10.096;2023-11-22T07:17:03;14.00;;;8.23;;
45548;SDS011;31270;48.328;10.096;2023-11-22T07:19:32;14.13;;;8.53;;
45548;SDS011;31270;48.328;10.096;2023-11-22T07:22:04;11.93;;;7.57;;
45548;SDS011;31270;48.328;10.096;2023-11-22T07:24:40;14.97;;;8.67;;
45548;SDS011;31270;48.328;10.096;2023-11-22T07:27:12;13.07;;;7.90;;
45548;SDS011;31270;48.328;10.096;2023-11-22T07:29:41;14.10;;;8.70;;
45548;SDS011;31270;48.328;10.096;2023-11-22T07:32:08;14.07;;;9.07;;
45548;SDS011;31270;48.328;10.096;2023-11-22T07:34:34;13.80;;;9.10;;
45548;SDS011;31270;48.328;10.096;2023-11-22T07:37:01;12.97;;;7.73;;
45548;SDS011;31270;48.328;10.096;2023-11-22T07:39:27;14.40;;;8.80;;
45548;SDS011;31270;48.328;10.096;2023-11-22T07:41:56;12.13;;;8.03;;
45548;SDS011;31270;48.328;10.096;2023-11-22T07:44:22;14.37;;;8.53;;
45548;SDS011;31270;48.328;10.096;2023-11-22T07:46:49;10.60;;;7.07;;
45548;SDS011;31270;48.328;10.096;2023-11-22T07:49:16;11.87;;;7.13;;
45548;SDS011;31270;48.328;10.096;2023-11-22T07:51:43;12.47;;;7.60;;
45548;SDS011;31270;48.328;10.096;2023-11-22T07:54:10;12.57;;;7.80;;
45548;SDS011;31270;48.328;10.096;2023-11-22T07:56:40;10.00;;;6.80;;
45548;SDS011;31270;48.328;10.096;2023-11-22T07:59:08;13.03;;;8.23;;
45548;SDS011;31270;48.328;10.096;2023-11-22T08:01:35;12.80;;;7.80;;
45548;SDS011;31270;48.328;10.096;2023-11-22T08:04:01;11.33;;;7.03;;
45548;SDS011;31270;48.328;10.096;2023-11-22T08:06:27;11.67;;;7.13;;
45548;SDS011;31270;48.328;10.096;2023-11-22T08:08:53;10.17;;;7.40;;
45548;SDS011;31270;48.328;10.096;2023-11-22T08:11:19;15.73;;;7.00;;
45548;SDS011;31270;48.328;10.096;2023-11-22T08:13:45;10.27;;;6.80;;
45548;SDS011;31270;48.328;10.096;2023-11-22T08:16:12;11.37;;;6.93;;
45548;SDS011;31270;48.328;10.096;2023-11-22T08:18:38;11.00;;;7.20;;
45548;SDS011;31270;48.328;10.096;2023-11-22T08:21:05;11.47;;;6.90;;
45548;SDS011;31270;48.328;10.096;2023-11-22T08:23:31;10.97;;;7.63;;
45548;SDS011;31270;48.328;10.096;2023-11-22T08:26:00;10.80;;;6.97;;
45548;SDS011;31270;48.328;10.096;2023-11-22T08:28:26;11.20;;;6.60;;
45548;SDS011;31270;48.328;10.096;2023-11-22T08:30:52;10.57;;;7.43;;
45548;SDS011;31270;48.328;10.096;2023-11-22T08:33:18;13.53;;;7.03;;
45548;SDS011;31270;48.328;10.096;2023-11-22T08:35:44;12.77;;;7.37;;
45548;SDS011;31270;48.328;10.096;2023-11-22T08:38:15;11.60;;;7.07;;
45548;SDS011;31270;48.328;10.096;2023-11-22T08:40:42;11.43;;;7.40;;
45548;SDS011;31270;48.328;10.096;2023-11-22T08:43:08;12.67;;;8.27;;
45548;SDS011;31270;48.328;10.096;2023-11-22T08:45:33;11.83;;;7.20;;
45548;SDS011;31270;48.328;10.096;2023-11-22T08:48:00;13.93;;;7.70;;
45548;SDS011;31270;48.328;10.096;2023-11-22T08:50:26;12.60;;;7.87;;
45548;SDS011;31270;48.328;10.096;2023-11-22T08:52:52;12.53;;;7.07;;
45548;SDS011;31270;48.328;10.096;2023-11-22T08:55:18;11.03;;;7.27;;
45548;SDS011;31270;48.328;10.096;2023-11-22T08:57:47;12.30;;;7.83;;
45548;SDS011;31270;48.328;10.096;2023-11-22T09:00:16;11.77;;;7.20;;
45548;SDS011;31270;48.328;10.096;2023-11-22T09:02:48;12.80;;;6.97;;
45548;SDS011;31270;48.328;10.096;2023-11-22T09:05:14;14.20;;;8.60;;
45548;SDS011;31270;48.328;10.096;2023-11-22T09:07:41;12.30;;;8.50;;
45548;SDS011;31270;48.328;10.096;2023-11-22T09:10:10;12.13;;;7.80;;
45548;SDS011;31270;48.328;10.096;2023-11-22T09:12:41;11.93;;;7.90;;
45548;SDS011;31270;48.328;10.096;2023-11-22T09:15:08;11.77;;;7.50;;
45548;SDS011;31270;48.328;10.096;2023-11-22T09:17:44;11.13;;;7.80;;
45548;SDS011;31270;48.328;10.096;2023-11-22T09:20:11;13.37;;;7.87;;
45548;SDS011;31270;48.328;10.096;2023-11-22T09:22:41;11.33;;;7.40;;
45548;SDS011;31270;48.328;10.096;2023-11-22T09:25:12;12.73;;;8.20;;
45548;SDS011;31270;48.328;10.096;2023-11-22T09:27:45;12.27;;;8.33;;
45548;SDS011;31270;48.328;10.096;2023-11-22T09:30:13;12.17;;;8.17;;
45548;SDS011;31270;48.328;10.096;2023-11-22T09:33:04;12.23;;;7.87;;
45548;SDS011;31270;48.328;10.096;2023-11-22T09:35:31;22.77;;;13.20;;
45548;SDS011;31270;48.328;10.096;2023-11-22T09:38:04;20.87;;;12.87;;
45548;SDS011;31270;48.328;10.096;2023-11-22T09:40:44;20.30;;;13.00;;
45548;SDS011;31270;48.328;10.096;2023-11-22T09:43:11;14.87;;;8.10;;
45548;SDS011;31270;48.328;10.096;2023-11-22T09:45:37;16.27;;;11.60;;
45548;SDS011;31270;48.328;10.096;2023-11-22T09:48:06;12.77;;;8.77;;
45548;SDS011;31270;48.328;10.096;2023-11-22T09:50:43;12.47;;;9.50;;
45548;SDS011;31270;48.328;10.096;2023-11-22T09:56:25;10.93;;;7.30;;
45548;SDS011;31270;48.328;10.096;2023-11-22T09:58:52;11.47;;;7.93;;
45548;SDS011;31270;48.328;10.096;2023-11-22T10:01:21;11.30;;;7.90;;
45548;SDS011;31270;48.328;10.096;2023-11-22T10:03:48;11.57;;;7.63;;
45548;SDS011;31270;48.328;10.096;2023-11-22T10:06:14;9.33;;;6.77;;
45548;SDS011;31270;48.328;10.096;2023-11-22T10:08:40;11.47;;;7.20;;
45548;SDS011;31270;48.328;10.096;2023-11-22T10:11:06;10.90;;;7.83;;
45548;SDS011;31270;48.328;10.096;2023-11-22T10:13:32;10.53;;;7.20;;
45548;SDS011;31270;48.328;10.096;2023-11-22T10:16:09;9.67;;;6.70;;
45548;SDS011;31270;48.328;10.096;2023-11-22T10:18:42;15.90;;;7.60;;
45548;SDS011;31270;48.328;10.096;2023-11-22T10:21:21;10.17;;;6.63;;
45548;SDS011;31270;48.328;10.096;2023-11-22T10:23:49;9.50;;;6.40;;
45548;SDS011;31270;48.328;10.096;2023-11-22T10:26:18;11.60;;;6.47;;
45548;SDS011;31270;48.328;10.096;2023-11-22T10:28:43;8.53;;;6.00;;
45548;SDS011;31270;48.328;10.096;2023-11-22T10:31:09;8.67;;;6.03;;
45548;SDS011;31270;48.328;10.096;2023-11-22T10:33:42;9.63;;;6.57;;
45548;SDS011;31270;48.328;10.096;2023-11-22T10:36:08;8.60;;;6.27;;
45548;SDS011;31270;48.328;10.096;2023-11-22T10:38:34;10.87;;;6.87;;
45548;SDS011;31270;48.328;10.096;2023-11-22T10:41:07;10.60;;;6.90;;
45548;SDS011;31270;48.328;10.096;2023-11-22T10:43:37;9.83;;;6.53;;
45548;SDS011;31270;48.328;10.096;2023-11-22T10:46:04;10.97;;;6.60;;
45548;SDS011;31270;48.328;10.096;2023-11-22T10:48:31;9.97;;;7.07;;
45548;SDS011;31270;48.328;10.096;2023-11-22T10:51:01;9.33;;;6.47;;
45548;SDS011;31270;48.328;10.096;2023-11-22T10:53:37;7.63;;;6.27;;
45548;SDS011;31270;48.328;10.096;2023-11-22T10:56:12;8.37;;;6.20;;
45548;SDS011;31270;48.328;10.096;2023-11-22T11:01:15;11.57;;;7.20;;
45548;SDS011;31270;48.328;10.096;2023-11-22T11:03:41;11.73;;;7.33;;
45548;SDS011;31270;48.328;10.096;2023-11-22T11:06:17;10.00;;;7.37;;
45548;SDS011;31270;48.328;10.096;2023-11-22T11:08:46;9.67;;;6.63;;
45548;SDS011;31270;48.328;10.096;2023-11-22T11:11:12;10.23;;;7.03;;
45548;SDS011;31270;48.328;10.096;2023-11-22T11:13:40;10.70;;;7.47;;
45548;SDS011;31270;48.328;10.096;2023-11-22T11:16:07;11.17;;;7.50;;
45548;SDS011;31270;48.328;10.096;2023-11-22T11:18:33;9.67;;;7.07;;
45548;SDS011;31270;48.328;10.096;2023-11-22T11:21:03;11.47;;;7.87;;
45548;SDS011;31270;48.328;10.096;2023-11-22T11:23:33;10.17;;;7.33;;
45548;SDS011;31270;48.328;10.096;2023-11-22T11:25:59;12.50;;;7.83;;
45548;SDS011;31270;48.328;10.096;2023-11-22T11:28:41;12.53;;;7.37;;
45548;SDS011;31270;48.328;10.096;2023-11-22T11:31:14;14.53;;;7.70;;
45548;SDS011;31270;48.328;10.096;2023-11-22T11:36:27;11.27;;;7.63;;
45548;SDS011;31270;48.328;10.096;2023-11-22T11:38:55;12.30;;;8.10;;
45548;SDS011;31270;48.328;10.096;2023-11-22T11:41:28;12.20;;;7.80;;
45548;SDS011;31270;48.328;10.096;2023-11-22T11:44:02;12.13;;;7.10;;
45548;SDS011;31270;48.328;10.096;2023-11-22T11:46:29;11.97;;;7.23;;
45548;SDS011;31270;48.328;10.096;2023-11-22T11:48:56;9.73;;;6.90;;
45548;SDS011;31270;48.328;10.096;2023-11-22T11:51:22;9.20;;;6.80;;
45548;SDS011;31270;48.328;10.096;2023-11-22T11:53:49;10.70;;;8.00;;
45548;SDS011;31270;48.328;10.096;2023-11-22T11:56:15;11.30;;;7.80;;
45548;SDS011;31270;48.328;10.096;2023-11-22T11:58:43;11.07;;;7.87;;
45548;SDS011;31270;48.328;10.096;2023-11-22T12:01:11;11.70;;;7.47;;
45548;SDS011;31270;48.328;10.096;2023-11-22T12:03:38;10.43;;;7.13;;
45548;SDS011;31270;48.328;10.096;2023-11-22T12:06:07;11.43;;;7.40;;
45548;SDS011;31270;48.328;10.096;2023-11-22T12:08:33;11.83;;;7.80;;
45548;SDS011;31270;48.328;10.096;2023-11-22T12:11:02;11.97;;;7.60;;
45548;SDS011;31270;48.328;10.096;2023-11-22T12:13:30;12.87;;;7.83;;
45548;SDS011;31270;48.328;10.096;2023-11-22T12:15:58;11.00;;;7.47;;
45548;SDS011;31270;48.328;10.096;2023-11-22T12:18:25;10.23;;;7.33;;
45548;SDS011;31270;48.328;10.096;2023-11-22T12:20:57;11.17;;;7.53;;
45548;SDS011;31270;48.328;10.096;2023-11-22T12:23:24;11.73;;;8.47;;
45548;SDS011;31270;48.328;10.096;2023-11-22T12:25:56;12.03;;;8.63;;
45548;SDS011;31270;48.328;10.096;2023-11-22T12:28:23;11.97;;;7.20;;
45548;SDS011;31270;48.328;10.096;2023-11-22T12:30:49;10.73;;;6.53;;
45548;SDS011;31270;48.328;10.096;2023-11-22T12:33:16;14.00;;;9.20;;
45548;SDS011;31270;48.328;10.096;2023-11-22T12:35:43;11.93;;;7.77;;
45548;SDS011;31270;48.328;10.096;2023-11-22T12:38:09;11.60;;;8.03;;
45548;SDS011;31270;48.328;10.096;2023-11-22T12:40:35;11.17;;;7.47;;
45548;SDS011;31270;48.328;10.096;2023-11-22T12:43:02;10.90;;;7.30;;
45548;SDS011;31270;48.328;10.096;2023-11-22T12:45:29;13.70;;;8.50;;
45548;SDS011;31270;48.328;10.096;2023-11-22T12:47:56;11.60;;;7.90;;
45548;SDS011;31270;48.328;10.096;2023-11-22T12:50:37;14.23;;;10.27;;
45548;SDS011;31270;48.328;10.096;2023-11-22T12:53:12;10.77;;;8.10;;
45548;SDS011;31270;48.328;10.096;2023-11-22T12:58:13;10.57;;;6.93;;
45548;SDS011;31270;48.328;10.096;2023-11-22T13:00:40;10.97;;;7.63;;
45548;SDS011;31270;48.328;10.096;2023-11-22T13:03:07;10.93;;;7.47;;
45548;SDS011;31270;48.328;10.096;2023-11-22T13:05:35;10.77;;;7.27;;
45548;SDS011;31270;48.328;10.096;2023-11-22T13:08:01;11.77;;;7.50;;
45548;SDS011;31270;48.328;10.096;2023-11-22T13:10:29;10.77;;;7.13;;
45548;SDS011;31270;48.328;10.096;2023-11-22T13:12:55;11.57;;;7.57;;
45548;SDS011;31270;48.328;10.096;2023-11-22T13:15:21;11.73;;;8.13;;
45548;SDS011;31270;48.328;10.096;2023-11-22T13:17:54;11.40;;;7.17;;
45548;SDS011;31270;48.328;10.096;2023-11-22T13:20:24;12.37;;;7.80;;
45548;SDS011;31270;48.328;10.096;2023-11-22T13:22:53;9.47;;;7.00;;
45548;SDS011;31270;48.328;10.096;2023-11-22T13:25:23;11.17;;;7.37;;
45548;SDS011;31270;48.328;10.096;2023-11-22T13:27:49;13.07;;;8.43;;
45548;SDS011;31270;48.328;10.096;2023-11-22T13:30:16;13.20;;;8.37;;
45548;SDS011;31270;48.328;10.096;2023-11-22T13:32:48;12.23;;;7.97;;
45548;SDS011;31270;48.328;10.096;2023-11-22T13:35:14;13.70;;;7.80;;
45548;SDS011;31270;48.328;10.096;2023-11-22T13:37:42;10.13;;;7.47;;
45548;SDS011;31270;48.328;10.096;2023-11-22T13:40:09;12.27;;;7.87;;
45548;SDS011;31270;48.328;10.096;2023-11-22T13:45:11;10.90;;;7.53;;
45548;SDS011;31270;48.328;10.096;2023-11-22T13:47:45;11.10;;;6.97;;
45548;SDS011;31270;48.328;10.096;2023-11-22T13:50:19;11.73;;;7.07;;
45548;SDS011;31270;48.328;10.096;2023-11-22T13:52:47;12.13;;;7.57;;
45548;SDS011;31270;48.328;10.096;2023-11-22T13:55:13;11.70;;;8.03;;
45548;SDS011;31270;48.328;10.096;2023-11-22T13:57:41;11.47;;;8.00;;
45548;SDS011;31270;48.328;10.096;2023-11-22T14:00:08;13.73;;;8.40;;
45548;SDS011;31270;48.328;10.096;2023-11-22T14:02:52;17.97;;;10.77;;
45548;SDS011;31270;48.328;10.096;2023-11-22T14:05:25;15.00;;;9.53;;
45548;SDS011;31270;48.328;10.096;2023-11-22T14:07:52;13.50;;;8.57;;
45548;SDS011;31270;48.328;10.096;2023-11-22T14:10:19;13.20;;;9.27;;
45548;SDS011;31270;48.328;10.096;2023-11-22T14:12:47;15.80;;;9.37;;
45548;SDS011;31270;48.328;10.096;2023-11-22T14:15:13;28.00;;;13.77;;
45548;SDS011;31270;48.328;10.096;2023-11-22T14:17:40;18.67;;;9.70;;
45548;SDS011;31270;48.328;10.096;2023-11-22T14:20:10;16.37;;;8.60;;
45548;SDS011;31270;48.328;10.096;2023-11-22T14:22:36;16.23;;;8.90;;
45548;SDS011;31270;48.328;10.096;2023-11-22T14:25:04;21.63;;;9.60;;
45548;SDS011;31270;48.328;10.096;2023-11-22T14:27:32;15.17;;;8.93;;
45548;SDS011;31270;48.328;10.096;2023-11-22T14:29:59;15.30;;;9.53;;
45548;SDS011;31270;48.328;10.096;2023-11-22T14:32:26;14.00;;;9.17;;
45548;SDS011;31270;48.328;10.096;2023-11-22T14:34:53;13.90;;;9.73;;
45548;SDS011;31270;48.328;10.096;2023-11-22T14:37:20;13.47;;;9.23;;